Terminal Aerodrome Forecast
Issued by NWS

Home | Current Version | Previous Version | Text Only | Print | Product List | Glossary On
Versions: 1 2 3 4 5 6 7 8 9 10 11 12 13 14
630
FTUS41 KBTV 262320
TAFMSS
TAF
KMSS 262320Z 2700/2724 12005KT P6SM VCSH OVC070
     FM270200 16006KT 4SM -SHRA BR OVC035
     FM270500 21007KT 4SM -SHRA BR OVC020
     FM270700 22005KT P6SM BKN070
     FM271400 23007KT P6SM FEW200=

USA.gov is the U.S. government's official web portal to all federal, state and local government web resources and services.